sensor_id;sensor_type;location;lat;lon;timestamp;P1;durP1;ratioP1;P2;durP2;ratioP2
19043;SDS011;9654;52.302;8.120;2024-02-21T00:02:20;40.60;;;15.23;;
19043;SDS011;9654;52.302;8.120;2024-02-21T00:04:47;34.07;;;14.67;;
19043;SDS011;9654;52.302;8.120;2024-02-21T00:07:14;33.70;;;14.03;;
19043;SDS011;9654;52.302;8.120;2024-02-21T00:09:41;38.00;;;13.97;;
19043;SDS011;9654;52.302;8.120;2024-02-21T00:12:08;39.07;;;15.33;;
19043;SDS011;9654;52.302;8.120;2024-02-21T00:14:36;34.63;;;14.20;;
19043;SDS011;9654;52.302;8.120;2024-02-21T00:17:03;36.90;;;15.23;;
19043;SDS011;9654;52.302;8.120;2024-02-21T00:19:30;38.50;;;14.10;;
19043;SDS011;9654;52.302;8.120;2024-02-21T00:21:57;33.90;;;13.53;;
19043;SDS011;9654;52.302;8.120;2024-02-21T00:24:24;34.83;;;14.70;;
19043;SDS011;9654;52.302;8.120;2024-02-21T00:26:51;34.23;;;14.47;;
19043;SDS011;9654;52.302;8.120;2024-02-21T00:29:18;36.53;;;15.47;;
19043;SDS011;9654;52.302;8.120;2024-02-21T00:31:46;35.83;;;13.87;;
19043;SDS011;9654;52.302;8.120;2024-02-21T00:34:14;35.93;;;15.03;;
19043;SDS011;9654;52.302;8.120;2024-02-21T00:36:41;26.53;;;13.47;;
19043;SDS011;9654;52.302;8.120;2024-02-21T00:39:07;33.80;;;13.43;;
19043;SDS011;9654;52.302;8.120;2024-02-21T00:41:34;31.23;;;14.07;;
19043;SDS011;9654;52.302;8.120;2024-02-21T00:44:02;34.13;;;14.73;;
19043;SDS011;9654;52.302;8.120;2024-02-21T00:46:30;34.80;;;13.53;;
19043;SDS011;9654;52.302;8.120;2024-02-21T00:48:59;36.87;;;14.40;;
19043;SDS011;9654;52.302;8.120;2024-02-21T00:51:25;37.43;;;14.23;;
19043;SDS011;9654;52.302;8.120;2024-02-21T00:53:52;36.80;;;14.30;;
19043;SDS011;9654;52.302;8.120;2024-02-21T00:56:19;31.60;;;13.10;;
19043;SDS011;9654;52.302;8.120;2024-02-21T00:58:46;39.60;;;13.80;;
19043;SDS011;9654;52.302;8.120;2024-02-21T01:01:13;34.83;;;14.07;;
19043;SDS011;9654;52.302;8.120;2024-02-21T01:03:46;30.67;;;13.93;;
19043;SDS011;9654;52.302;8.120;2024-02-21T01:06:14;32.30;;;12.77;;
19043;SDS011;9654;52.302;8.120;2024-02-21T01:08:41;29.17;;;12.80;;
19043;SDS011;9654;52.302;8.120;2024-02-21T01:11:08;29.83;;;12.57;;
19043;SDS011;9654;52.302;8.120;2024-02-21T01:13:35;39.00;;;14.17;;
19043;SDS011;9654;52.302;8.120;2024-02-21T01:16:02;31.27;;;12.80;;
19043;SDS011;9654;52.302;8.120;2024-02-21T01:18:31;30.53;;;13.53;;
19043;SDS011;9654;52.302;8.120;2024-02-21T01:20:58;26.67;;;13.33;;
19043;SDS011;9654;52.302;8.120;2024-02-21T01:23:26;38.50;;;13.90;;
19043;SDS011;9654;52.302;8.120;2024-02-21T01:25:53;28.77;;;12.40;;
19043;SDS011;9654;52.302;8.120;2024-02-21T01:28:20;26.30;;;12.50;;
19043;SDS011;9654;52.302;8.120;2024-02-21T01:30:47;35.47;;;13.27;;
19043;SDS011;9654;52.302;8.120;2024-02-21T01:33:14;39.57;;;14.03;;
19043;SDS011;9654;52.302;8.120;2024-02-21T01:35:41;32.73;;;13.63;;
19043;SDS011;9654;52.302;8.120;2024-02-21T01:38:08;27.63;;;12.33;;
19043;SDS011;9654;52.302;8.120;2024-02-21T01:40:37;29.27;;;13.20;;
19043;SDS011;9654;52.302;8.120;2024-02-21T01:43:14;31.97;;;13.27;;
19043;SDS011;9654;52.302;8.120;2024-02-21T01:45:42;28.67;;;13.50;;
19043;SDS011;9654;52.302;8.120;2024-02-21T01:48:08;24.37;;;12.50;;
19043;SDS011;9654;52.302;8.120;2024-02-21T01:50:36;33.83;;;12.77;;
19043;SDS011;9654;52.302;8.120;2024-02-21T01:53:03;28.10;;;12.33;;
19043;SDS011;9654;52.302;8.120;2024-02-21T01:55:30;32.97;;;12.57;;
19043;SDS011;9654;52.302;8.120;2024-02-21T01:57:58;30.80;;;12.03;;
19043;SDS011;9654;52.302;8.120;2024-02-21T02:00:26;34.77;;;12.13;;
19043;SDS011;9654;52.302;8.120;2024-02-21T02:02:53;27.53;;;13.03;;
19043;SDS011;9654;52.302;8.120;2024-02-21T02:05:21;32.53;;;13.17;;
19043;SDS011;9654;52.302;8.120;2024-02-21T02:07:48;35.50;;;12.37;;
19043;SDS011;9654;52.302;8.120;2024-02-21T02:10:15;31.93;;;13.10;;
19043;SDS011;9654;52.302;8.120;2024-02-21T02:12:42;31.30;;;12.50;;
19043;SDS011;9654;52.302;8.120;2024-02-21T02:15:11;26.50;;;12.43;;
19043;SDS011;9654;52.302;8.120;2024-02-21T02:17:37;36.47;;;13.43;;
19043;SDS011;9654;52.302;8.120;2024-02-21T02:20:05;26.40;;;12.40;;
19043;SDS011;9654;52.302;8.120;2024-02-21T02:22:33;29.57;;;13.33;;
19043;SDS011;9654;52.302;8.120;2024-02-21T02:25:07;31.90;;;13.10;;
19043;SDS011;9654;52.302;8.120;2024-02-21T02:27:40;30.30;;;12.50;;
19043;SDS011;9654;52.302;8.120;2024-02-21T02:30:09;31.67;;;13.50;;
19043;SDS011;9654;52.302;8.120;2024-02-21T02:32:37;28.23;;;14.20;;
19043;SDS011;9654;52.302;8.120;2024-02-21T02:35:04;33.90;;;13.43;;
19043;SDS011;9654;52.302;8.120;2024-02-21T02:37:31;31.40;;;13.33;;
19043;SDS011;9654;52.302;8.120;2024-02-21T02:39:58;32.73;;;13.17;;
19043;SDS011;9654;52.302;8.120;2024-02-21T02:42:27;33.47;;;13.93;;
19043;SDS011;9654;52.302;8.120;2024-02-21T02:44:53;30.57;;;13.87;;
19043;SDS011;9654;52.302;8.120;2024-02-21T02:47:22;31.50;;;13.70;;
19043;SDS011;9654;52.302;8.120;2024-02-21T02:49:49;32.93;;;13.70;;
19043;SDS011;9654;52.302;8.120;2024-02-21T02:52:16;34.20;;;15.07;;
19043;SDS011;9654;52.302;8.120;2024-02-21T02:54:43;38.77;;;14.43;;
19043;SDS011;9654;52.302;8.120;2024-02-21T02:57:10;31.63;;;13.10;;
19043;SDS011;9654;52.302;8.120;2024-02-21T02:59:38;32.67;;;13.03;;
19043;SDS011;9654;52.302;8.120;2024-02-21T03:02:05;31.90;;;14.20;;
19043;SDS011;9654;52.302;8.120;2024-02-21T03:04:32;36.17;;;14.40;;
19043;SDS011;9654;52.302;8.120;2024-02-21T03:06:59;35.20;;;13.73;;
19043;SDS011;9654;52.302;8.120;2024-02-21T03:09:27;35.47;;;15.47;;
19043;SDS011;9654;52.302;8.120;2024-02-21T03:11:54;33.43;;;14.40;;
19043;SDS011;9654;52.302;8.120;2024-02-21T03:14:27;32.63;;;13.97;;
19043;SDS011;9654;52.302;8.120;2024-02-21T03:16:55;30.93;;;14.07;;
19043;SDS011;9654;52.302;8.120;2024-02-21T03:19:22;34.17;;;14.37;;
19043;SDS011;9654;52.302;8.120;2024-02-21T03:21:49;31.80;;;15.20;;
19043;SDS011;9654;52.302;8.120;2024-02-21T03:24:16;34.60;;;14.73;;
19043;SDS011;9654;52.302;8.120;2024-02-21T03:26:43;32.67;;;14.57;;
19043;SDS011;9654;52.302;8.120;2024-02-21T03:29:11;32.57;;;13.80;;
19043;SDS011;9654;52.302;8.120;2024-02-21T03:31:38;34.47;;;15.40;;
19043;SDS011;9654;52.302;8.120;2024-02-21T03:34:06;31.53;;;14.90;;
19043;SDS011;9654;52.302;8.120;2024-02-21T03:36:33;33.33;;;15.27;;
19043;SDS011;9654;52.302;8.120;2024-02-21T03:39:00;38.03;;;14.60;;
19043;SDS011;9654;52.302;8.120;2024-02-21T03:41:27;32.33;;;13.30;;
19043;SDS011;9654;52.302;8.120;2024-02-21T03:43:54;38.40;;;15.07;;
19043;SDS011;9654;52.302;8.120;2024-02-21T03:46:20;35.27;;;14.17;;
19043;SDS011;9654;52.302;8.120;2024-02-21T03:48:47;32.60;;;14.70;;
19043;SDS011;9654;52.302;8.120;2024-02-21T03:51:16;39.47;;;15.00;;
19043;SDS011;9654;52.302;8.120;2024-02-21T03:53:42;36.63;;;14.53;;
19043;SDS011;9654;52.302;8.120;2024-02-21T03:56:09;39.43;;;16.77;;
19043;SDS011;9654;52.302;8.120;2024-02-21T03:58:36;38.27;;;14.43;;
19043;SDS011;9654;52.302;8.120;2024-02-21T04:01:03;28.40;;;14.07;;
19043;SDS011;9654;52.302;8.120;2024-02-21T04:03:30;29.67;;;15.10;;
19043;SDS011;9654;52.302;8.120;2024-02-21T04:05:57;35.50;;;15.00;;
19043;SDS011;9654;52.302;8.120;2024-02-21T04:08:25;30.33;;;14.73;;
19043;SDS011;9654;52.302;8.120;2024-02-21T04:10:52;35.37;;;13.50;;
19043;SDS011;9654;52.302;8.120;2024-02-21T04:13:19;34.13;;;14.77;;
19043;SDS011;9654;52.302;8.120;2024-02-21T04:15:47;43.47;;;16.97;;
19043;SDS011;9654;52.302;8.120;2024-02-21T04:18:14;40.63;;;15.80;;
19043;SDS011;9654;52.302;8.120;2024-02-21T04:20:41;35.43;;;15.50;;
19043;SDS011;9654;52.302;8.120;2024-02-21T04:23:08;34.97;;;14.70;;
19043;SDS011;9654;52.302;8.120;2024-02-21T04:25:36;38.00;;;14.93;;
19043;SDS011;9654;52.302;8.120;2024-02-21T04:28:04;42.93;;;17.50;;
19043;SDS011;9654;52.302;8.120;2024-02-21T04:30:31;39.20;;;15.80;;
19043;SDS011;9654;52.302;8.120;2024-02-21T04:32:58;38.70;;;16.70;;
19043;SDS011;9654;52.302;8.120;2024-02-21T04:35:25;41.13;;;17.50;;
19043;SDS011;9654;52.302;8.120;2024-02-21T04:37:52;33.60;;;16.00;;
19043;SDS011;9654;52.302;8.120;2024-02-21T04:40:19;45.07;;;17.40;;
19043;SDS011;9654;52.302;8.120;2024-02-21T04:42:47;33.70;;;15.47;;
19043;SDS011;9654;52.302;8.120;2024-02-21T04:45:14;41.47;;;16.77;;
19043;SDS011;9654;52.302;8.120;2024-02-21T04:47:42;43.40;;;17.30;;
19043;SDS011;9654;52.302;8.120;2024-02-21T04:50:09;43.60;;;17.27;;
19043;SDS011;9654;52.302;8.120;2024-02-21T04:52:36;40.00;;;15.80;;
19043;SDS011;9654;52.302;8.120;2024-02-21T04:55:03;35.80;;;17.33;;
19043;SDS011;9654;52.302;8.120;2024-02-21T04:57:31;40.97;;;16.57;;
19043;SDS011;9654;52.302;8.120;2024-02-21T04:59:59;43.87;;;18.27;;
19043;SDS011;9654;52.302;8.120;2024-02-21T05:02:26;39.80;;;16.90;;
19043;SDS011;9654;52.302;8.120;2024-02-21T05:04:53;40.50;;;18.47;;
19043;SDS011;9654;52.302;8.120;2024-02-21T05:07:20;49.23;;;18.60;;
19043;SDS011;9654;52.302;8.120;2024-02-21T05:09:47;38.73;;;17.10;;
19043;SDS011;9654;52.302;8.120;2024-02-21T05:12:13;49.20;;;17.73;;
19043;SDS011;9654;52.302;8.120;2024-02-21T05:14:40;42.20;;;17.90;;
19043;SDS011;9654;52.302;8.120;2024-02-21T05:17:08;44.10;;;18.20;;
19043;SDS011;9654;52.302;8.120;2024-02-21T05:19:35;40.20;;;16.80;;
19043;SDS011;9654;52.302;8.120;2024-02-21T05:22:02;38.73;;;16.87;;
19043;SDS011;9654;52.302;8.120;2024-02-21T05:24:29;39.80;;;16.43;;
19043;SDS011;9654;52.302;8.120;2024-02-21T05:26:56;36.80;;;17.07;;
19043;SDS011;9654;52.302;8.120;2024-02-21T05:29:23;47.23;;;17.20;;
19043;SDS011;9654;52.302;8.120;2024-02-21T05:31:56;42.57;;;17.43;;
19043;SDS011;9654;52.302;8.120;2024-02-21T05:34:25;45.83;;;18.20;;
19043;SDS011;9654;52.302;8.120;2024-02-21T05:36:52;40.60;;;17.40;;
19043;SDS011;9654;52.302;8.120;2024-02-21T05:39:19;37.27;;;15.90;;
19043;SDS011;9654;52.302;8.120;2024-02-21T05:41:47;40.23;;;17.10;;
19043;SDS011;9654;52.302;8.120;2024-02-21T05:44:15;40.07;;;18.00;;
19043;SDS011;9654;52.302;8.120;2024-02-21T05:46:42;37.80;;;15.97;;
19043;SDS011;9654;52.302;8.120;2024-02-21T05:49:08;33.40;;;15.93;;
19043;SDS011;9654;52.302;8.120;2024-02-21T05:51:37;37.90;;;15.13;;
19043;SDS011;9654;52.302;8.120;2024-02-21T05:54:04;33.90;;;15.73;;
19043;SDS011;9654;52.302;8.120;2024-02-21T05:56:32;40.80;;;15.70;;
19043;SDS011;9654;52.302;8.120;2024-02-21T05:58:59;34.67;;;14.10;;
19043;SDS011;9654;52.302;8.120;2024-02-21T06:01:26;31.33;;;14.97;;
19043;SDS011;9654;52.302;8.120;2024-02-21T06:03:53;31.93;;;13.93;;
19043;SDS011;9654;52.302;8.120;2024-02-21T06:06:19;42.30;;;16.13;;
19043;SDS011;9654;52.302;8.120;2024-02-21T06:08:48;32.50;;;15.13;;
19043;SDS011;9654;52.302;8.120;2024-02-21T06:11:15;36.87;;;14.20;;
19043;SDS011;9654;52.302;8.120;2024-02-21T06:13:42;29.70;;;14.50;;
19043;SDS011;9654;52.302;8.120;2024-02-21T06:16:09;38.67;;;13.90;;
19043;SDS011;9654;52.302;8.120;2024-02-21T06:18:36;38.00;;;15.37;;
19043;SDS011;9654;52.302;8.120;2024-02-21T06:21:03;30.37;;;14.20;;
19043;SDS011;9654;52.302;8.120;2024-02-21T06:23:30;32.80;;;13.47;;
19043;SDS011;9654;52.302;8.120;2024-02-21T06:25:59;44.20;;;13.73;;
19043;SDS011;9654;52.302;8.120;2024-02-21T06:28:26;38.13;;;13.53;;
19043;SDS011;9654;52.302;8.120;2024-02-21T06:30:53;38.17;;;13.97;;
19043;SDS011;9654;52.302;8.120;2024-02-21T06:33:20;26.87;;;13.27;;
19043;SDS011;9654;52.302;8.120;2024-02-21T06:35:49;39.37;;;15.87;;
19043;SDS011;9654;52.302;8.120;2024-02-21T06:38:18;27.90;;;14.53;;
19043;SDS011;9654;52.302;8.120;2024-02-21T06:40:46;33.77;;;14.60;;
19043;SDS011;9654;52.302;8.120;2024-02-21T06:43:19;34.30;;;18.90;;
19043;SDS011;9654;52.302;8.120;2024-02-21T06:45:47;35.83;;;19.03;;
19043;SDS011;9654;52.302;8.120;2024-02-21T06:48:16;34.03;;;13.53;;
19043;SDS011;9654;52.302;8.120;2024-02-21T06:50:44;54.63;;;25.20;;
19043;SDS011;9654;52.302;8.120;2024-02-21T06:53:11;41.93;;;16.97;;
19043;SDS011;9654;52.302;8.120;2024-02-21T06:55:38;49.07;;;21.83;;
19043;SDS011;9654;52.302;8.120;2024-02-21T06:58:05;52.70;;;22.93;;
19043;SDS011;9654;52.302;8.120;2024-02-21T07:00:37;91.33;;;37.83;;
19043;SDS011;9654;52.302;8.120;2024-02-21T07:03:06;39.43;;;19.80;;
19043;SDS011;9654;52.302;8.120;2024-02-21T07:05:33;49.27;;;24.00;;
19043;SDS011;9654;52.302;8.120;2024-02-21T07:08:00;37.47;;;18.67;;
19043;SDS011;9654;52.302;8.120;2024-02-21T07:10:28;111.87;;;43.17;;
19043;SDS011;9654;52.302;8.120;2024-02-21T07:12:55;78.63;;;34.03;;
19043;SDS011;9654;52.302;8.120;2024-02-21T07:15:22;42.23;;;17.90;;
19043;SDS011;9654;52.302;8.120;2024-02-21T07:17:53;102.53;;;39.47;;
19043;SDS011;9654;52.302;8.120;2024-02-21T07:20:20;103.27;;;65.00;;
19043;SDS011;9654;52.302;8.120;2024-02-21T07:22:46;39.47;;;21.27;;
19043;SDS011;9654;52.302;8.120;2024-02-21T07:25:13;32.37;;;14.20;;
19043;SDS011;9654;52.302;8.120;2024-02-21T07:27:40;30.33;;;13.10;;
19043;SDS011;9654;52.302;8.120;2024-02-21T07:30:08;27.43;;;12.30;;
19043;SDS011;9654;52.302;8.120;2024-02-21T07:32:35;20.83;;;10.40;;
19043;SDS011;9654;52.302;8.120;2024-02-21T07:35:04;26.67;;;11.17;;
19043;SDS011;9654;52.302;8.120;2024-02-21T07:37:35;29.33;;;11.53;;
19043;SDS011;9654;52.302;8.120;2024-02-21T07:40:02;21.60;;;10.27;;
19043;SDS011;9654;52.302;8.120;2024-02-21T07:42:30;28.10;;;11.20;;
19043;SDS011;9654;52.302;8.120;2024-02-21T07:44:57;23.20;;;10.17;;
19043;SDS011;9654;52.302;8.120;2024-02-21T07:47:24;24.43;;;10.53;;
19043;SDS011;9654;52.302;8.120;2024-02-21T07:49:51;25.70;;;10.40;;
19043;SDS011;9654;52.302;8.120;2024-02-21T07:52:19;22.07;;;9.77;;
19043;SDS011;9654;52.302;8.120;2024-02-21T07:54:46;25.00;;;11.20;;
19043;SDS011;9654;52.302;8.120;2024-02-21T07:57:13;25.03;;;11.07;;
19043;SDS011;9654;52.302;8.120;2024-02-21T07:59:40;31.23;;;11.13;;
19043;SDS011;9654;52.302;8.120;2024-02-21T08:02:07;22.13;;;10.27;;
19043;SDS011;9654;52.302;8.120;2024-02-21T08:04:34;21.23;;;11.10;;
19043;SDS011;9654;52.302;8.120;2024-02-21T08:07:01;25.80;;;11.13;;
19043;SDS011;9654;52.302;8.120;2024-02-21T08:09:30;23.77;;;11.60;;
19043;SDS011;9654;52.302;8.120;2024-02-21T08:11:57;24.57;;;10.63;;
19043;SDS011;9654;52.302;8.120;2024-02-21T08:14:24;23.60;;;11.17;;
19043;SDS011;9654;52.302;8.120;2024-02-21T08:16:51;31.87;;;12.43;;
19043;SDS011;9654;52.302;8.120;2024-02-21T08:19:20;23.43;;;11.80;;
19043;SDS011;9654;52.302;8.120;2024-02-21T08:21:48;28.90;;;12.57;;
19043;SDS011;9654;52.302;8.120;2024-02-21T08:24:14;32.47;;;13.53;;
19043;SDS011;9654;52.302;8.120;2024-02-21T08:26:43;31.20;;;12.73;;
19043;SDS011;9654;52.302;8.120;2024-02-21T08:29:11;29.23;;;12.80;;
19043;SDS011;9654;52.302;8.120;2024-02-21T08:31:38;28.97;;;12.37;;
19043;SDS011;9654;52.302;8.120;2024-02-21T08:34:05;28.57;;;12.53;;
19043;SDS011;9654;52.302;8.120;2024-02-21T08:36:32;29.03;;;12.77;;
19043;SDS011;9654;52.302;8.120;2024-02-21T08:39:00;26.87;;;13.73;;
19043;SDS011;9654;52.302;8.120;2024-02-21T08:41:30;29.57;;;12.10;;
19043;SDS011;9654;52.302;8.120;2024-02-21T08:44:00;29.03;;;11.80;;
19043;SDS011;9654;52.302;8.120;2024-02-21T08:46:28;27.37;;;11.57;;
19043;SDS011;9654;52.302;8.120;2024-02-21T08:48:55;26.23;;;11.53;;
19043;SDS011;9654;52.302;8.120;2024-02-21T08:51:22;26.03;;;11.47;;
19043;SDS011;9654;52.302;8.120;2024-02-21T08:53:49;28.03;;;12.23;;
19043;SDS011;9654;52.302;8.120;2024-02-21T08:56:17;30.30;;;16.57;;
19043;SDS011;9654;52.302;8.120;2024-02-21T08:58:43;20.97;;;10.97;;
19043;SDS011;9654;52.302;8.120;2024-02-21T09:01:12;27.13;;;12.43;;
19043;SDS011;9654;52.302;8.120;2024-02-21T09:03:40;26.23;;;12.53;;
19043;SDS011;9654;52.302;8.120;2024-02-21T09:06:07;21.90;;;11.47;;
19043;SDS011;9654;52.302;8.120;2024-02-21T09:08:35;27.27;;;16.30;;
19043;SDS011;9654;52.302;8.120;2024-02-21T09:11:03;26.13;;;13.67;;
19043;SDS011;9654;52.302;8.120;2024-02-21T09:13:32;28.07;;;10.83;;
19043;SDS011;9654;52.302;8.120;2024-02-21T09:15:59;27.20;;;11.13;;
19043;SDS011;9654;52.302;8.120;2024-02-21T09:18:27;20.10;;;11.07;;
19043;SDS011;9654;52.302;8.120;2024-02-21T09:20:54;25.70;;;9.40;;
19043;SDS011;9654;52.302;8.120;2024-02-21T09:23:23;23.03;;;10.40;;
19043;SDS011;9654;52.302;8.120;2024-02-21T09:25:50;24.27;;;9.53;;
19043;SDS011;9654;52.302;8.120;2024-02-21T09:28:17;24.70;;;10.43;;
19043;SDS011;9654;52.302;8.120;2024-02-21T09:30:44;24.93;;;9.97;;
19043;SDS011;9654;52.302;8.120;2024-02-21T09:33:11;14.77;;;8.37;;
19043;SDS011;9654;52.302;8.120;2024-02-21T09:35:41;26.77;;;9.23;;
19043;SDS011;9654;52.302;8.120;2024-02-21T09:38:08;17.20;;;7.57;;
19043;SDS011;9654;52.302;8.120;2024-02-21T09:40:34;18.53;;;8.57;;
19043;SDS011;9654;52.302;8.120;2024-02-21T09:43:04;18.83;;;9.80;;
19043;SDS011;9654;52.302;8.120;2024-02-21T09:45:32;13.73;;;7.17;;
19043;SDS011;9654;52.302;8.120;2024-02-21T09:50:58;20.87;;;7.93;;
19043;SDS011;9654;52.302;8.120;2024-02-21T09:53:26;17.83;;;6.03;;
19043;SDS011;9654;52.302;8.120;2024-02-21T09:55:55;10.00;;;6.77;;
19043;SDS011;9654;52.302;8.120;2024-02-21T09:58:23;15.97;;;6.07;;
19043;SDS011;9654;52.302;8.120;2024-02-21T10:00:52;18.77;;;5.70;;
19043;SDS011;9654;52.302;8.120;2024-02-21T10:03:19;16.90;;;7.50;;
19043;SDS011;9654;52.302;8.120;2024-02-21T10:05:47;13.57;;;5.83;;
19043;SDS011;9654;52.302;8.120;2024-02-21T10:08:18;16.13;;;5.40;;
19043;SDS011;9654;52.302;8.120;2024-02-21T10:10:46;10.50;;;5.87;;
19043;SDS011;9654;52.302;8.120;2024-02-21T10:13:23;19.97;;;7.83;;
19043;SDS011;9654;52.302;8.120;2024-02-21T10:16:00;14.60;;;6.43;;
19043;SDS011;9654;52.302;8.120;2024-02-21T10:18:30;20.00;;;9.90;;
19043;SDS011;9654;52.302;8.120;2024-02-21T10:21:01;16.07;;;6.70;;
19043;SDS011;9654;52.302;8.120;2024-02-21T10:23:43;20.90;;;12.57;;
19043;SDS011;9654;52.302;8.120;2024-02-21T10:26:11;13.63;;;8.27;;
19043;SDS011;9654;52.302;8.120;2024-02-21T10:28:38;20.67;;;9.63;;
19043;SDS011;9654;52.302;8.120;2024-02-21T10:31:07;16.73;;;5.83;;
19043;SDS011;9654;52.302;8.120;2024-02-21T10:33:35;13.37;;;5.17;;
19043;SDS011;9654;52.302;8.120;2024-02-21T10:36:06;11.43;;;5.70;;
19043;SDS011;9654;52.302;8.120;2024-02-21T10:38:34;15.47;;;6.30;;
19043;SDS011;9654;52.302;8.120;2024-02-21T10:41:03;12.37;;;5.13;;
19043;SDS011;9654;52.302;8.120;2024-02-21T10:43:33;10.57;;;5.27;;
19043;SDS011;9654;52.302;8.120;2024-02-21T10:46:07;9.40;;;5.13;;
19043;SDS011;9654;52.302;8.120;2024-02-21T10:48:38;12.80;;;4.93;;
19043;SDS011;9654;52.302;8.120;2024-02-21T10:51:12;12.10;;;5.50;;
19043;SDS011;9654;52.302;8.120;2024-02-21T10:53:45;10.17;;;5.03;;
19043;SDS011;9654;52.302;8.120;2024-02-21T10:56:26;14.50;;;5.53;;
19043;SDS011;9654;52.302;8.120;2024-02-21T10:58:55;12.33;;;5.83;;
19043;SDS011;9654;52.302;8.120;2024-02-21T11:01:23;10.43;;;5.70;;
19043;SDS011;9654;52.302;8.120;2024-02-21T11:03:52;13.17;;;6.50;;
19043;SDS011;9654;52.302;8.120;2024-02-21T11:06:20;9.43;;;5.40;;
19043;SDS011;9654;52.302;8.120;2024-02-21T11:08:58;13.87;;;6.47;;
19043;SDS011;9654;52.302;8.120;2024-02-21T11:11:29;12.63;;;6.10;;
19043;SDS011;9654;52.302;8.120;2024-02-21T11:14:03;12.03;;;5.90;;
19043;SDS011;9654;52.302;8.120;2024-02-21T11:16:34;11.40;;;5.43;;
19043;SDS011;9654;52.302;8.120;2024-02-21T11:19:06;12.70;;;6.43;;
19043;SDS011;9654;52.302;8.120;2024-02-21T11:21:34;15.43;;;6.70;;
19043;SDS011;9654;52.302;8.120;2024-02-21T11:24:01;10.03;;;5.50;;
19043;SDS011;9654;52.302;8.120;2024-02-21T11:26:30;11.60;;;5.73;;
19043;SDS011;9654;52.302;8.120;2024-02-21T11:28:58;10.27;;;5.53;;
19043;SDS011;9654;52.302;8.120;2024-02-21T11:31:27;14.40;;;5.57;;
19043;SDS011;9654;52.302;8.120;2024-02-21T11:34:04;15.37;;;5.93;;
19043;SDS011;9654;52.302;8.120;2024-02-21T11:36:30;8.03;;;5.53;;
19043;SDS011;9654;52.302;8.120;2024-02-21T11:39:02;12.10;;;5.47;;
19043;SDS011;9654;52.302;8.120;2024-02-21T11:41:31;13.60;;;5.07;;
19043;SDS011;9654;52.302;8.120;2024-02-21T11:43:58;10.87;;;5.73;;
19043;SDS011;9654;52.302;8.120;2024-02-21T11:46:25;8.90;;;5.47;;
19043;SDS011;9654;52.302;8.120;2024-02-21T11:48:52;13.00;;;5.50;;
19043;SDS011;9654;52.302;8.120;2024-02-21T11:51:24;9.90;;;5.93;;
19043;SDS011;9654;52.302;8.120;2024-02-21T11:53:52;11.47;;;5.77;;
19043;SDS011;9654;52.302;8.120;2024-02-21T11:56:19;11.83;;;5.67;;
19043;SDS011;9654;52.302;8.120;2024-02-21T11:58:49;8.40;;;5.00;;
19043;SDS011;9654;52.302;8.120;2024-02-21T12:01:16;8.70;;;5.43;;
19043;SDS011;9654;52.302;8.120;2024-02-21T12:03:43;19.73;;;10.87;;
19043;SDS011;9654;52.302;8.120;2024-02-21T12:06:15;29.27;;;16.80;;
19043;SDS011;9654;52.302;8.120;2024-02-21T12:08:45;15.43;;;9.27;;
19043;SDS011;9654;52.302;8.120;2024-02-21T12:11:15;15.60;;;7.33;;
19043;SDS011;9654;52.302;8.120;2024-02-21T12:13:46;13.73;;;5.67;;
19043;SDS011;9654;52.302;8.120;2024-02-21T12:16:16;10.93;;;4.80;;
19043;SDS011;9654;52.302;8.120;2024-02-21T12:18:45;13.00;;;4.57;;
19043;SDS011;9654;52.302;8.120;2024-02-21T12:21:12;10.63;;;5.10;;
19043;SDS011;9654;52.302;8.120;2024-02-21T12:23:39;9.63;;;5.53;;
19043;SDS011;9654;52.302;8.120;2024-02-21T12:26:06;11.60;;;5.20;;
19043;SDS011;9654;52.302;8.120;2024-02-21T12:28:34;14.90;;;5.37;;
19043;SDS011;9654;52.302;8.120;2024-02-21T12:31:01;14.73;;;5.80;;
19043;SDS011;9654;52.302;8.120;2024-02-21T12:33:30;14.93;;;6.20;;
19043;SDS011;9654;52.302;8.120;2024-02-21T12:35:58;12.57;;;5.97;;
19043;SDS011;9654;52.302;8.120;2024-02-21T12:38:25;15.00;;;6.17;;
19043;SDS011;9654;52.302;8.120;2024-02-21T12:40:51;20.10;;;6.77;;
19043;SDS011;9654;52.302;8.120;2024-02-21T12:43:18;16.33;;;5.57;;
19043;SDS011;9654;52.302;8.120;2024-02-21T12:45:47;12.50;;;5.60;;
19043;SDS011;9654;52.302;8.120;2024-02-21T12:48:14;12.47;;;5.80;;
19043;SDS011;9654;52.302;8.120;2024-02-21T12:53:14;16.50;;;5.60;;
19043;SDS011;9654;52.302;8.120;2024-02-21T12:55:41;12.63;;;6.10;;
19043;SDS011;9654;52.302;8.120;2024-02-21T12:58:08;14.10;;;5.87;;
19043;SDS011;9654;52.302;8.120;2024-02-21T13:00:35;11.10;;;5.93;;
19043;SDS011;9654;52.302;8.120;2024-02-21T13:03:02;12.90;;;6.57;;
19043;SDS011;9654;52.302;8.120;2024-02-21T13:05:32;27.60;;;13.43;;
19043;SDS011;9654;52.302;8.120;2024-02-21T13:08:00;18.90;;;8.60;;
19043;SDS011;9654;52.302;8.120;2024-02-21T13:10:27;18.80;;;8.67;;
19043;SDS011;9654;52.302;8.120;2024-02-21T13:12:54;12.70;;;7.47;;
19043;SDS011;9654;52.302;8.120;2024-02-21T13:15:21;16.37;;;8.93;;
19043;SDS011;9654;52.302;8.120;2024-02-21T13:17:48;17.03;;;9.47;;
19043;SDS011;9654;52.302;8.120;2024-02-21T13:20:15;19.57;;;9.30;;
19043;SDS011;9654;52.302;8.120;2024-02-21T13:22:42;18.73;;;9.57;;
19043;SDS011;9654;52.302;8.120;2024-02-21T13:25:10;16.33;;;8.63;;
19043;SDS011;9654;52.302;8.120;2024-02-21T13:27:40;16.90;;;8.80;;
19043;SDS011;9654;52.302;8.120;2024-02-21T13:30:07;13.77;;;8.43;;
19043;SDS011;9654;52.302;8.120;2024-02-21T13:32:35;15.23;;;9.37;;
19043;SDS011;9654;52.302;8.120;2024-02-21T13:35:02;17.17;;;8.17;;
19043;SDS011;9654;52.302;8.120;2024-02-21T13:37:29;15.60;;;8.27;;
19043;SDS011;9654;52.302;8.120;2024-02-21T13:39:56;16.40;;;7.63;;
19043;SDS011;9654;52.302;8.120;2024-02-21T13:42:24;19.70;;;8.10;;
19043;SDS011;9654;52.302;8.120;2024-02-21T13:44:53;14.90;;;7.80;;
19043;SDS011;9654;52.302;8.120;2024-02-21T13:47:19;14.63;;;7.90;;
19043;SDS011;9654;52.302;8.120;2024-02-21T13:49:47;12.40;;;7.47;;
19043;SDS011;9654;52.302;8.120;2024-02-21T13:52:14;20.47;;;8.10;;
19043;SDS011;9654;52.302;8.120;2024-02-21T13:54:42;18.03;;;8.27;;
19043;SDS011;9654;52.302;8.120;2024-02-21T13:57:09;12.67;;;7.67;;
19043;SDS011;9654;52.302;8.120;2024-02-21T13:59:37;14.53;;;6.83;;
19043;SDS011;9654;52.302;8.120;2024-02-21T14:02:04;17.97;;;7.83;;
19043;SDS011;9654;52.302;8.120;2024-02-21T14:04:33;18.03;;;7.67;;
19043;SDS011;9654;52.302;8.120;2024-02-21T14:07:00;17.27;;;7.70;;
19043;SDS011;9654;52.302;8.120;2024-02-21T14:09:27;15.97;;;8.00;;
19043;SDS011;9654;52.302;8.120;2024-02-21T14:11:55;14.57;;;7.03;;
19043;SDS011;9654;52.302;8.120;2024-02-21T14:14:22;13.23;;;7.73;;
19043;SDS011;9654;52.302;8.120;2024-02-21T14:16:50;19.50;;;8.17;;
19043;SDS011;9654;52.302;8.120;2024-02-21T14:19:17;17.27;;;7.97;;
19043;SDS011;9654;52.302;8.120;2024-02-21T14:21:45;15.23;;;7.47;;
19043;SDS011;9654;52.302;8.120;2024-02-21T14:24:12;19.40;;;8.77;;
19043;SDS011;9654;52.302;8.120;2024-02-21T14:26:39;17.30;;;7.73;;
19043;SDS011;9654;52.302;8.120;2024-02-21T14:29:06;13.87;;;7.03;;
19043;SDS011;9654;52.302;8.120;2024-02-21T14:31:33;14.57;;;7.20;;
19043;SDS011;9654;52.302;8.120;2024-02-21T14:34:02;17.73;;;6.17;;
19043;SDS011;9654;52.302;8.120;2024-02-21T14:36:28;15.40;;;6.90;;
19043;SDS011;9654;52.302;8.120;2024-02-21T14:38:55;18.20;;;7.63;;
19043;SDS011;9654;52.302;8.120;2024-02-21T14:41:22;14.13;;;5.37;;
19043;SDS011;9654;52.302;8.120;2024-02-21T14:43:50;13.70;;;5.83;;
19043;SDS011;9654;52.302;8.120;2024-02-21T14:46:17;12.17;;;5.80;;
19043;SDS011;9654;52.302;8.120;2024-02-21T14:48:45;16.40;;;6.40;;